Darstellungsparameter: Aktuell verwendete Einstellungen:
Skalierung der Graphiken ... ?
xyx+y,   Skalierungsfaktor:      Skalierung: Modus: x, Faktor: 1
Darstellungszeitraum ... ?
Vom - - bis: - -   Zeitraum: 23.05.2010 - 29.05.2010
Min/Max/Avg-Anzeige ... ?
Zeige MMA aktuell
Zeige MMA Monat
Zeige MMA alles
Zeige --A aktuell
Zeige --A Monat
Zeige --A alles
Keine MMA-Anzeige
MMA:
Average (ber die Originaldaten)
MMA-Basis: 23.05.2010 - 29.05.2010
Quicknavigation für Darstellung... ?
Tage:      1T, 2T, 3T, 5T -1T -2T -3T -5T +1T +2T +3T +5T
Wochen: 1W, 2W, 3W -1W -2W -3W +1W +2W +3W
Monate: 1M, 3M, 6M -1M -3M -6M +1M +3M +6M
Jahre:    1J, 3J, 5J, 10J -1J -3J -5J -10J +1J +3J +5J +10J
Nutze für die Darstellung ... ?
Originaldaten oder Mittelwerte auf ...
Stundenbasis Tagesbasis Wochenbasis
Monatsbasis Jahresbasis      Datenbasis: Original-Daten
Darstellen als:
Statistik (Auto) Statistik J:M      Darstellung:
Zur Graphik,    zurück zur Übersicht aller Sensoren.
 
Tabellarische Datenbersicht: ?
 
Sensor: Nr:Datum:Temp:Abs-Feuchte:Windchill:Wind:
Aussen-T/F 1 23-05-2010 00:02:02 17.3 C 7.66 g/m*3 17.3 C 0 km/h
2 23-05-2010 00:14:02 17.1 C 7.71 g/m*3 17.1 C 0 km/h
3 23-05-2010 00:26:02 16.6 C 7.91 g/m*3 16.6 C 0 km/h
4 23-05-2010 00:38:02 16.2 C 7.86 g/m*3 16.2 C 0 km/h
5 23-05-2010 00:50:01 16 C 8.04 g/m*3 16 C 0 km/h
6 23-05-2010 01:02:02 15.7 C 8.16 g/m*3 15.7 C 0 km/h
7 23-05-2010 01:14:02 15.4 C 8.15 g/m*3 15.4 C 0 km/h
8 23-05-2010 01:26:02 15.2 C 8.18 g/m*3 15.2 C 0 km/h
9 23-05-2010 01:38:02 14.9 C 8.28 g/m*3 14.9 C 0 km/h
10 23-05-2010 01:50:02 14.5 C 8.33 g/m*3 14.5 C 0 km/h
11 23-05-2010 02:02:02 14.4 C 8.41 g/m*3 14.4 C 0 km/h
12 23-05-2010 02:14:02 14.2 C 8.3 g/m*3 14.2 C 0 km/h
13 23-05-2010 02:26:02 14.2 C 8.43 g/m*3 14.2 C 0 km/h
14 23-05-2010 02:38:01 14 C 8.32 g/m*3 14 C 0 km/h
15 23-05-2010 02:50:02 13.9 C 8.51 g/m*3 13.9 C 0 km/h
16 23-05-2010 03:02:02 13.8 C 8.46 g/m*3 13.8 C 0 km/h
17 23-05-2010 03:14:01 13.7 C 8.53 g/m*3 13.7 C 0 km/h
18 23-05-2010 03:26:01 13.5 C 8.54 g/m*3 13.5 C 0 km/h
19 23-05-2010 03:38:01 13.2 C 8.5 g/m*3 13.2 C 0 km/h
20 23-05-2010 03:50:01 12.9 C 8.45 g/m*3 12.9 C 0 km/h
21 23-05-2010 04:02:02 12.8 C 8.51 g/m*3 12.8 C 0 km/h
22 23-05-2010 04:14:02 12.7 C 8.46 g/m*3 12.7 C 0 km/h
23 23-05-2010 04:26:01 12.7 C 8.57 g/m*3 12.7 C 0 km/h
24 23-05-2010 04:38:02 12.4 C 8.41 g/m*3 12.4 C 0 km/h
25 23-05-2010 04:50:01 12.3 C 8.47 g/m*3 12.3 C 0 km/h
Sensor: Nr:Datum:Temp:Abs-Feuchte:Windchill:Wind:
Aussen-T/F 26 23-05-2010 05:02:02 12.1 C 8.36 g/m*3 12.1 C 0 km/h
27 23-05-2010 05:14:02 12 C 8.42 g/m*3 12 C 0 km/h
28 23-05-2010 05:26:01 11.9 C 8.37 g/m*3 11.9 C 0 km/h
29 23-05-2010 05:38:01 11.8 C 8.31 g/m*3 11.8 C 0 km/h
30 23-05-2010 05:50:01 11.8 C 8.42 g/m*3 11.8 C 0 km/h
31 23-05-2010 06:02:01 11.6 C 8.32 g/m*3 11.6 C 0 km/h
32 23-05-2010 06:14:02 11.5 C 8.26 g/m*3 11.5 C 0 km/h
33 23-05-2010 06:26:01 11.5 C 8.37 g/m*3 11.5 C 0 km/h
34 23-05-2010 06:38:01 11.5 C 8.37 g/m*3 11.5 C 0 km/h
35 23-05-2010 06:50:01 11.5 C 8.37 g/m*3 11.5 C 0 km/h
36 23-05-2010 07:02:01 11.5 C 8.47 g/m*3 11.5 C 0 km/h
37 23-05-2010 07:14:01 11.8 C 8.63 g/m*3 11.8 C 0 km/h
38 23-05-2010 07:26:02 11.9 C 8.68 g/m*3 11.9 C 0 km/h
39 23-05-2010 07:38:01 12.1 C 8.69 g/m*3 12.1 C 0 km/h
40 23-05-2010 07:50:01 12.4 C 8.85 g/m*3 12.4 C 0 km/h
41 23-05-2010 08:02:01 12.7 C 8.91 g/m*3 12.7 C 0 km/h
42 23-05-2010 08:14:01 13.3 C 9.24 g/m*3 13.3 C 0 km/h
43 23-05-2010 08:26:02 14 C 9.41 g/m*3 14 C 0 km/h
44 23-05-2010 08:38:01 14.4 C 9.27 g/m*3 14.4 C 0 km/h
45 23-05-2010 08:50:01 14.8 C 9.37 g/m*3 14.8 C 0 km/h
46 23-05-2010 09:02:01 15.2 C 9.22 g/m*3 15.2 C 0 km/h
47 23-05-2010 09:14:01 15.7 C 9.37 g/m*3 15.7 C 0 km/h
48 23-05-2010 09:26:02 16.1 C 9.32 g/m*3 16.1 C 0 km/h
49 23-05-2010 09:38:01 16.7 C 9.38 g/m*3 16.7 C 0 km/h
50 23-05-2010 09:50:02 17.2 C 9.08 g/m*3 17.2 C 0 km/h
Sensor: Nr:Datum:Temp:Abs-Feuchte:Windchill:Wind:
Aussen-T/F 51 23-05-2010 10:02:01 17.8 C 9.41 g/m*3 17.8 C 0 km/h
52 23-05-2010 10:14:01 18.7 C 9.45 g/m*3 18.7 C 0 km/h
53 23-05-2010 10:26:01 19.2 C 9.4 g/m*3 19.2 C 0 km/h
54 23-05-2010 10:38:01 20 C 9.16 g/m*3 20 C 0 km/h
55 23-05-2010 10:50:01 20.3 C 9.15 g/m*3 20.3 C 0 km/h
56 23-05-2010 11:02:01 20.5 C 8.9 g/m*3 20.5 C 0 km/h
57 23-05-2010 11:14:02 21.2 C 8.9 g/m*3 21.2 C 0 km/h
58 23-05-2010 11:26:01 20.4 C 8.49 g/m*3 20.4 C 0 km/h
59 23-05-2010 11:38:02 20.9 C 8.74 g/m*3 20.9 C 0 km/h
60 23-05-2010 11:50:02 21.5 C 8.11 g/m*3 21.5 C 0 km/h
61 23-05-2010 12:02:01 22.1 C 8 g/m*3 22.1 C 0 km/h
62 23-05-2010 12:14:01 23.1 C 7.65 g/m*3 23.1 C 0 km/h
63 23-05-2010 12:26:01 23.7 C 6.84 g/m*3 23.7 C 0 km/h
64 23-05-2010 12:38:02 24.6 C 6.75 g/m*3 24.6 C 0 km/h
65 23-05-2010 12:50:01 24.7 C 5.66 g/m*3 24.7 C 0 km/h
66 23-05-2010 13:02:01 25.1 C 4.86 g/m*3 25.1 C 0 km/h
67 23-05-2010 13:14:01 25.8 C 4.82 g/m*3 25.8 C 0 km/h
68 23-05-2010 13:26:01 27.2 C 5.2 g/m*3 27.2 C 0 km/h
69 23-05-2010 13:38:02 26.9 C 5.37 g/m*3 26.9 C 0 km/h
70 23-05-2010 13:50:01 26.8 C 5.09 g/m*3 26.8 C 0 km/h
71 23-05-2010 14:02:02 26.2 C 4.92 g/m*3 26.2 C 0 km/h
72 23-05-2010 14:14:02 25.5 C 5.45 g/m*3 25.5 C 0 km/h
73 23-05-2010 14:26:01 25.6 C 5.48 g/m*3 25.6 C 0 km/h
74 23-05-2010 14:38:01 25.8 C 6.02 g/m*3 25.8 C 0 km/h
75 23-05-2010 14:50:01 27.4 C 6.31 g/m*3 27.4 C 0 km/h
Sensor: Nr:Datum:Temp:Abs-Feuchte:Windchill:Wind:
Aussen-T/F 76 23-05-2010 15:02:02 27.7 C 5.88 g/m*3 27.7 C 0 km/h
77 23-05-2010 15:14:02 27.2 C 5.99 g/m*3 27.2 C 0 km/h
78 23-05-2010 15:26:01 27.9 C 5.68 g/m*3 27.9 C 0 km/h
79 23-05-2010 15:38:01 28.2 C 5.77 g/m*3 28.2 C 0 km/h
80 23-05-2010 15:50:01 28.4 C 5.56 g/m*3 28.4 C 0 km/h
81 23-05-2010 16:02:01 28.2 C 5.5 g/m*3 28.2 C 0 km/h
82 23-05-2010 16:14:01 28.6 C 5.62 g/m*3 28.6 C 0 km/h
83 23-05-2010 16:26:01 29 C 5.74 g/m*3 29 C 0 km/h
84 23-05-2010 16:38:01 28.9 C 5.71 g/m*3 28.9 C 0 km/h
85 23-05-2010 16:50:01 29 C 5.74 g/m*3 29 C 0 km/h
86 23-05-2010 17:02:01 30.2 C 6.13 g/m*3 30.2 C 0 km/h
87 23-05-2010 17:14:01 30.1 C 6.1 g/m*3 30.1 C 0 km/h
88 23-05-2010 17:26:01 29.5 C 5.9 g/m*3 29.5 C 0 km/h
89 23-05-2010 17:38:01 29.2 C 6.1 g/m*3 29.2 C 0 km/h
90 23-05-2010 17:50:01 29.2 C 6.1 g/m*3 29.2 C 0 km/h
91 23-05-2010 18:02:01 28.8 C 6.53 g/m*3 28.8 C 0 km/h
92 23-05-2010 18:14:01 29.5 C 6.49 g/m*3 29.5 C 0 km/h
93 23-05-2010 18:26:02 28.6 C 6.74 g/m*3 28.6 C 0 km/h
94 23-05-2010 18:38:01 28.4 C 6.39 g/m*3 28.4 C 0 km/h
95 23-05-2010 18:50:02 28.8 C 6.82 g/m*3 28.8 C 0 km/h
96 23-05-2010 19:02:01 29.8 C 6.6 g/m*3 29.8 C 0 km/h
97 23-05-2010 19:14:01 27.9 C 6.49 g/m*3 27.9 C 0 km/h
98 23-05-2010 19:26:02 28.1 C 6.84 g/m*3 28.1 C 0 km/h
99 23-05-2010 19:38:01 27.4 C 6.84 g/m*3 27.4 C 0 km/h
100 23-05-2010 19:50:02 27.4 C 7.1 g/m*3 27.4 C 0 km/h
Sensor: Nr:Datum:Temp:Abs-Feuchte:Windchill:Wind:
Aussen-T/F 101 23-05-2010 20:02:01 27.1 C 7.25 g/m*3 27.1 C 0 km/h
102 23-05-2010 20:14:01 26.4 C 7.47 g/m*3 26.4 C 0 km/h
103 23-05-2010 20:26:01 27.2 C 7.29 g/m*3 27.2 C 0 km/h
104 23-05-2010 20:38:01 26.3 C 7.43 g/m*3 26.3 C 0 km/h
105 23-05-2010 20:50:01 25.4 C 7.3 g/m*3 25.4 C 0 km/h
106 23-05-2010 21:02:01 24.5 C 7.83 g/m*3 24.5 C 0 km/h
107 23-05-2010 21:14:01 24.1 C 7.66 g/m*3 24.1 C 0 km/h
108 23-05-2010 21:26:01 23.4 C 7.57 g/m*3 23.4 C 0 km/h
109 23-05-2010 21:38:02 23.1 C 7.86 g/m*3 23.1 C 0 km/h
110 23-05-2010 21:50:01 22.6 C 8.04 g/m*3 22.6 C 0 km/h
111 23-05-2010 22:02:02 22.2 C 8.05 g/m*3 22.2 C 0 km/h
112 23-05-2010 22:14:02 21.7 C 8.39 g/m*3 21.7 C 0 km/h
113 23-05-2010 22:26:01 21.3 C 8.57 g/m*3 21.3 C 0 km/h
114 23-05-2010 22:38:02 20.9 C 8.56 g/m*3 20.9 C 0 km/h
115 23-05-2010 22:51:05 20.7 C 8.82 g/m*3 20.7 C 0 km/h
116 23-05-2010 23:03:05 20.4 C 8.85 g/m*3 20.4 C 0 km/h
117 23-05-2010 23:15:05 20 C 8.81 g/m*3 20 C 0 km/h
118 23-05-2010 23:27:05 19.6 C 8.95 g/m*3 19.6 C 0 km/h
119 23-05-2010 23:39:05 19.2 C 8.9 g/m*3 19.2 C 0 km/h
120 23-05-2010 23:51:05 18.8 C 9.18 g/m*3 18.8 C 0 km/h
121 24-05-2010 00:03:05 18.4 C 9.12 g/m*3 18.4 C 0 km/h
122 24-05-2010 00:15:05 18 C 9.06 g/m*3 18 C 0 km/h
123 24-05-2010 00:27:05 17.9 C 9.16 g/m*3 17.9 C 0 km/h
124 24-05-2010 00:39:05 17.6 C 9.3 g/m*3 17.6 C 0 km/h
125 24-05-2010 00:51:05 17.3 C 9.28 g/m*3 17.3 C 0 km/h
Sensor: Nr:Datum:Temp:Abs-Feuchte:Windchill:Wind:
Aussen-T/F 126 24-05-2010 01:03:05 17.2 C 9.23 g/m*3 17.2 C 0 km/h
127 24-05-2010 01:15:05 16.8 C 9.44 g/m*3 16.8 C 0 km/h
128 24-05-2010 01:27:05 16.6 C 9.46 g/m*3 16.6 C 0 km/h
129 24-05-2010 01:39:05 16.3 C 9.43 g/m*3 16.3 C 0 km/h
130 24-05-2010 01:51:05 16 C 9.4 g/m*3 16 C 0 km/h
131 24-05-2010 02:03:05 15.8 C 9.56 g/m*3 15.8 C 0 km/h
132 24-05-2010 02:15:05 15.6 C 9.44 g/m*3 15.6 C 0 km/h
133 24-05-2010 02:27:05 15.5 C 9.52 g/m*3 15.5 C 0 km/h
134 24-05-2010 02:39:05 15.3 C 9.4 g/m*3 15.3 C 0 km/h
135 24-05-2010 02:51:05 15.1 C 9.29 g/m*3 15.1 C 0 km/h
136 24-05-2010 03:03:06 14.9 C 9.43 g/m*3 14.9 C 0 km/h
137 24-05-2010 03:15:06 14.6 C 9.26 g/m*3 14.6 C 0 km/h
138 24-05-2010 03:27:06 14.4 C 9.27 g/m*3 14.4 C 0 km/h
139 24-05-2010 03:39:06 14.4 C 9.27 g/m*3 14.4 C 0 km/h
140 24-05-2010 03:51:06 14.2 C 9.28 g/m*3 14.2 C 0 km/h
141 24-05-2010 04:03:06 14 C 9.17 g/m*3 14 C 0 km/h
142 24-05-2010 04:15:06 13.8 C 9.29 g/m*3 13.8 C 0 km/h
143 24-05-2010 04:27:06 13.8 C 9.17 g/m*3 13.8 C 0 km/h
144 24-05-2010 04:39:06 13.8 C 9.17 g/m*3 13.8 C 0 km/h
145 24-05-2010 04:51:06 13.7 C 9.12 g/m*3 13.7 C 0 km/h
146 24-05-2010 05:03:06 13.5 C 9.01 g/m*3 13.5 C 0 km/h
147 24-05-2010 05:15:06 13.3 C 8.9 g/m*3 13.3 C 0 km/h
148 24-05-2010 05:27:06 13 C 8.73 g/m*3 13 C 0 km/h
149 24-05-2010 05:39:06 13 C 8.85 g/m*3 13 C 0 km/h
150 24-05-2010 05:51:06 12.8 C 8.85 g/m*3 12.8 C 0 km/h
Sensor: Nr:Datum:Temp:Abs-Feuchte:Windchill:Wind:
Aussen-T/F 151 24-05-2010 06:03:06 12.9 C 9.02 g/m*3 12.9 C 0 km/h
152 24-05-2010 06:15:06 12.7 C 8.79 g/m*3 12.7 C 0 km/h
153 24-05-2010 06:27:06 12.5 C 8.8 g/m*3 12.5 C 0 km/h
154 24-05-2010 06:39:06 12.6 C 8.96 g/m*3 12.6 C 0 km/h
155 24-05-2010 06:51:06 13 C 9.19 g/m*3 13 C 0 km/h
156 24-05-2010 07:03:06 13.2 C 9.19 g/m*3 13.2 C 0 km/h
157 24-05-2010 07:15:07 13.4 C 9.18 g/m*3 13.4 C 0 km/h
158 24-05-2010 07:27:07 13.7 C 9.35 g/m*3 13.7 C 0 km/h
159 24-05-2010 07:39:07 13.8 C 9.29 g/m*3 13.8 C 0 km/h
160 24-05-2010 07:51:07 13.9 C 9.23 g/m*3 13.9 C 0 km/h
161 24-05-2010 08:03:07 14.2 C 9.28 g/m*3 14.2 C 0 km/h
162 24-05-2010 08:15:07 14.5 C 9.45 g/m*3 14.5 C 0 km/h
163 24-05-2010 08:27:07 14.8 C 9.5 g/m*3 14.8 C 0 km/h
164 24-05-2010 08:39:05 15.2 C 9.61 g/m*3 15.2 C 0 km/h
165 24-05-2010 08:51:02 15.7 C 9.77 g/m*3 15.7 C 0 km/h
166 24-05-2010 09:03:02 16.3 C 9.71 g/m*3 16.3 C 0 km/h
167 24-05-2010 09:15:02 17 C 9.84 g/m*3 17 C 0 km/h
168 24-05-2010 09:27:02 17.5 C 9.84 g/m*3 17.5 C 0 km/h
169 24-05-2010 09:39:02 18.3 C 9.85 g/m*3 18.3 C 0 km/h
170 24-05-2010 09:51:02 19 C 9.61 g/m*3 19 C 0 km/h
171 24-05-2010 10:03:02 19.7 C 9.85 g/m*3 19.7 C 0 km/h
172 24-05-2010 10:15:02 20.4 C 9.55 g/m*3 20.4 C 0 km/h
173 24-05-2010 10:27:02 21.3 C 9.69 g/m*3 21.3 C 0 km/h
174 24-05-2010 10:39:02 21.7 C 9.16 g/m*3 21.7 C 0 km/h
175 24-05-2010 10:51:02 22.4 C 9.14 g/m*3 22.4 C 0 km/h
Sensor: Nr:Datum:Temp:Abs-Feuchte:Windchill:Wind:
Aussen-T/F 176 24-05-2010 11:03:02 22.9 C 9.2 g/m*3 22.9 C 0 km/h
177 24-05-2010 11:15:01 23.3 C 8.57 g/m*3 23.3 C 0 km/h
178 24-05-2010 11:27:01 23.8 C 8.82 g/m*3 23.8 C 0 km/h
179 24-05-2010 11:39:02 24.2 C 8.58 g/m*3 24.2 C 0 km/h
180 24-05-2010 11:51:02 24.9 C 8.7 g/m*3 24.9 C 0 km/h
181 24-05-2010 12:03:02 25.7 C 8.38 g/m*3 25.7 C 0 km/h
182 24-05-2010 12:15:02 25.4 C 7.3 g/m*3 25.4 C 0 km/h
183 24-05-2010 12:27:02 25.8 C 7.22 g/m*3 25.8 C 0 km/h
184 24-05-2010 12:39:02 26.6 C 6.29 g/m*3 26.6 C 0 km/h
185 24-05-2010 12:51:02 27.4 C 6.84 g/m*3 27.4 C 0 km/h
186 24-05-2010 13:03:02 26.9 C 6.4 g/m*3 26.9 C 0 km/h
187 24-05-2010 13:15:02 27 C 6.43 g/m*3 27 C 0 km/h
188 24-05-2010 13:27:02 27.1 C 6.73 g/m*3 27.1 C 0 km/h
189 24-05-2010 13:39:02 27 C 6.43 g/m*3 27 C 0 km/h
190 24-05-2010 13:51:02 26.5 C 6.51 g/m*3 26.5 C 0 km/h
191 24-05-2010 14:03:02 27 C 6.43 g/m*3 27 C 0 km/h
192 24-05-2010 14:15:02 27.2 C 6.51 g/m*3 27.2 C 0 km/h
193 24-05-2010 14:27:02 28.4 C 6.67 g/m*3 28.4 C 0 km/h
194 24-05-2010 14:39:02 28.8 C 5.97 g/m*3 28.8 C 0 km/h
195 24-05-2010 14:51:01 30 C 6.37 g/m*3 30 C 0 km/h
196 24-05-2010 15:03:02 29.1 C 6.06 g/m*3 29.1 C 0 km/h
197 24-05-2010 15:15:02 28.1 C 6.29 g/m*3 28.1 C 0 km/h
198 24-05-2010 15:27:02 27.6 C 6.65 g/m*3 27.6 C 0 km/h
199 24-05-2010 15:39:02 28.3 C 6.36 g/m*3 28.3 C 0 km/h
200 24-05-2010 15:51:02 27.8 C 6.72 g/m*3 27.8 C 0 km/h
Sensor: Nr:Datum:Temp:Abs-Feuchte:Windchill:Wind:
Aussen-T/F 201 24-05-2010 16:03:02 27.3 C 6.8 g/m*3 27.3 C 0 km/h
202 24-05-2010 16:15:02 27.3 C 6.54 g/m*3 27.3 C 0 km/h
203 24-05-2010 16:27:02 27.3 C 6.54 g/m*3 27.3 C 0 km/h
204 24-05-2010 16:39:01 27.7 C 6.42 g/m*3 27.7 C 0 km/h
205 24-05-2010 16:51:02 28.5 C 6.15 g/m*3 28.5 C 0 km/h
206 24-05-2010 17:03:01 28.5 C 6.15 g/m*3 28.5 C 0 km/h
207 24-05-2010 17:15:02 28.1 C 5.47 g/m*3 28.1 C 0 km/h
208 24-05-2010 17:27:02 27.9 C 5.41 g/m*3 27.9 C 0 km/h
209 24-05-2010 17:39:01 27.9 C 5.68 g/m*3 27.9 C 0 km/h
210 24-05-2010 17:51:03 28.6 C 5.62 g/m*3 28.6 C 0 km/h
211 24-05-2010 18:03:02 27.8 C 5.65 g/m*3 27.8 C 0 km/h
212 24-05-2010 18:15:02 28 C 5.44 g/m*3 28 C 0 km/h
213 24-05-2010 18:27:03 29.2 C 5.81 g/m*3 29.2 C 0 km/h
214 24-05-2010 18:39:02 28.8 C 5.68 g/m*3 28.8 C 0 km/h
215 24-05-2010 18:51:02 29.1 C 5.78 g/m*3 29.1 C 0 km/h
216 24-05-2010 19:03:02 29.2 C 5.81 g/m*3 29.2 C 0 km/h
217 24-05-2010 19:15:02 28.4 C 5.56 g/m*3 28.4 C 0 km/h
218 24-05-2010 19:27:02 28.4 C 5.84 g/m*3 28.4 C 0 km/h
219 24-05-2010 19:39:02 27.9 C 5.68 g/m*3 27.9 C 0 km/h
220 24-05-2010 19:51:02 27.9 C 5.95 g/m*3 27.9 C 0 km/h
221 24-05-2010 20:03:01 27.5 C 6.35 g/m*3 27.5 C 0 km/h
222 24-05-2010 20:15:02 27.4 C 6.58 g/m*3 27.4 C 0 km/h
223 24-05-2010 20:27:02 27.2 C 6.51 g/m*3 27.2 C 0 km/h
224 24-05-2010 20:39:01 25.8 C 6.5 g/m*3 25.8 C 0 km/h
225 24-05-2010 20:51:02 25.3 C 7.02 g/m*3 25.3 C 0 km/h
Sensor: Nr:Datum:Temp:Abs-Feuchte:Windchill:Wind:
Aussen-T/F 226 24-05-2010 21:03:01 24.7 C 7.02 g/m*3 24.7 C 0 km/h
227 24-05-2010 21:15:02 24.1 C 7 g/m*3 24.1 C 0 km/h
228 24-05-2010 21:27:02 23.7 C 7.49 g/m*3 23.7 C 0 km/h
229 24-05-2010 21:39:01 23.3 C 7.32 g/m*3 23.3 C 0 km/h
230 24-05-2010 21:51:02 23.1 C 7.23 g/m*3 23.1 C 0 km/h
231 24-05-2010 22:03:03 22.7 C 7.48 g/m*3 22.7 C 0 km/h
232 24-05-2010 22:15:02 22.3 C 7.7 g/m*3 22.3 C 0 km/h
233 24-05-2010 22:27:02 21.9 C 7.91 g/m*3 21.9 C 0 km/h
234 24-05-2010 22:39:02 21.5 C 8.11 g/m*3 21.5 C 0 km/h
235 24-05-2010 22:52:03 20.9 C 8.38 g/m*3 20.9 C 0 km/h
236 24-05-2010 23:04:03 20.5 C 8.36 g/m*3 20.5 C 0 km/h
237 24-05-2010 23:16:03 20.2 C 8.22 g/m*3 20.2 C 0 km/h
238 24-05-2010 23:28:03 19.7 C 8.32 g/m*3 19.7 C 0 km/h
239 24-05-2010 23:40:03 19.6 C 8.27 g/m*3 19.6 C 0 km/h
240 24-05-2010 23:52:03 19.3 C 8.29 g/m*3 19.3 C 0 km/h
241 25-05-2010 00:04:03 19.1 C 8.36 g/m*3 19.1 C 0 km/h
242 25-05-2010 00:16:04 18.7 C 8.49 g/m*3 18.7 C 0 km/h
243 25-05-2010 00:28:04 18.5 C 8.54 g/m*3 18.5 C 0 km/h
244 25-05-2010 00:40:04 18.2 C 8.55 g/m*3 18.2 C 0 km/h
245 25-05-2010 00:52:04 18 C 8.75 g/m*3 18 C 0 km/h
246 25-05-2010 01:04:04 17.8 C 8.8 g/m*3 17.8 C 0 km/h
247 25-05-2010 01:16:04 17.5 C 8.8 g/m*3 17.5 C 0 km/h
248 25-05-2010 01:28:04 17.2 C 8.79 g/m*3 17.2 C 0 km/h
249 25-05-2010 01:40:04 16.8 C 9.01 g/m*3 16.8 C 0 km/h
250 25-05-2010 01:52:04 16.6 C 8.9 g/m*3 16.6 C 0 km/h
Sensor: Nr:Datum:Temp:Abs-Feuchte:Windchill:Wind:
Aussen-T/F 251 25-05-2010 02:04:04 16.2 C 8.96 g/m*3 16.2 C 0 km/h
252 25-05-2010 02:16:04 16.1 C 8.91 g/m*3 16.1 C 0 km/h
253 25-05-2010 02:28:04 16 C 8.86 g/m*3 16 C 0 km/h
254 25-05-2010 02:40:04 15.9 C 8.94 g/m*3 15.9 C 0 km/h
255 25-05-2010 02:52:04 15.8 C 9.02 g/m*3 15.8 C 0 km/h
256 25-05-2010 03:04:04 15.5 C 8.99 g/m*3 15.5 C 0 km/h
257 25-05-2010 03:16:04 15.2 C 9.09 g/m*3 15.2 C 0 km/h
258 25-05-2010 03:28:04 14.8 C 9.12 g/m*3 14.8 C 0 km/h
259 25-05-2010 03:40:04 14.7 C 9.19 g/m*3 14.7 C 0 km/h
260 25-05-2010 03:52:04 14.6 C 9.13 g/m*3 14.6 C 0 km/h
261 25-05-2010 04:04:04 14.6 C 9.13 g/m*3 14.6 C 0 km/h
262 25-05-2010 04:16:04 14.5 C 9.2 g/m*3 14.5 C 0 km/h
263 25-05-2010 04:28:04 14.1 C 9.1 g/m*3 14.1 C 0 km/h
264 25-05-2010 04:40:05 13.8 C 9.17 g/m*3 13.8 C 0 km/h
265 25-05-2010 04:52:05 13.9 C 9.23 g/m*3 13.9 C 0 km/h
266 25-05-2010 05:04:05 14.1 C 9.22 g/m*3 14.1 C 0 km/h
267 25-05-2010 05:16:05 14 C 9.05 g/m*3 14 C 0 km/h
268 25-05-2010 05:28:05 13.8 C 9.06 g/m*3 13.8 C 0 km/h
269 25-05-2010 05:40:05 13.8 C 9.17 g/m*3 13.8 C 0 km/h
270 25-05-2010 05:52:05 13.8 C 9.06 g/m*3 13.8 C 0 km/h
271 25-05-2010 06:04:05 14 C 9.17 g/m*3 14 C 0 km/h
272 25-05-2010 06:16:05 14.1 C 9.1 g/m*3 14.1 C 0 km/h
273 25-05-2010 06:28:05 14.5 C 9.33 g/m*3 14.5 C 0 km/h
274 25-05-2010 06:40:05 15 C 9.23 g/m*3 15 C 0 km/h
275 25-05-2010 06:52:05 15.3 C 9.27 g/m*3 15.3 C 0 km/h
Sensor: Nr:Datum:Temp:Abs-Feuchte:Windchill:Wind:
Aussen-T/F 276 25-05-2010 07:04:05 15.4 C 9.2 g/m*3 15.4 C 0 km/h
277 25-05-2010 07:16:05 15.5 C 8.99 g/m*3 15.5 C 0 km/h
278 25-05-2010 07:28:06 15.6 C 9.18 g/m*3 15.6 C 0 km/h
279 25-05-2010 07:40:06 15.6 C 9.04 g/m*3 15.6 C 0 km/h
280 25-05-2010 07:52:06 15.9 C 9.21 g/m*3 15.9 C 0 km/h
281 25-05-2010 08:04:06 16.1 C 9.18 g/m*3 16.1 C 0 km/h
282 25-05-2010 08:16:06 16.2 C 9.1 g/m*3 16.2 C 0 km/h
283 25-05-2010 08:28:06 16.5 C 8.99 g/m*3 16.5 C 0 km/h
284 25-05-2010 08:40:03 17.2 C 9.23 g/m*3 17.2 C 0 km/h
285 25-05-2010 08:52:01 17.9 C 9.16 g/m*3 17.9 C 0 km/h
286 25-05-2010 09:04:02 18.1 C 8.81 g/m*3 18.1 C 0 km/h
287 25-05-2010 09:16:01 18.2 C 8.39 g/m*3 18.2 C 0 km/h
288 25-05-2010 09:28:01 18.5 C 8.23 g/m*3 18.5 C 0 km/h
289 25-05-2010 09:40:02 18.9 C 7.45 g/m*3 18.9 C 0 km/h
290 25-05-2010 09:52:02 19.4 C 7.17 g/m*3 19.4 C 0 km/h
291 25-05-2010 10:04:02 19.8 C 7 g/m*3 19.8 C 0 km/h
292 25-05-2010 10:16:01 20.2 C 6.99 g/m*3 20.2 C 0 km/h
293 25-05-2010 10:28:01 20.9 C 6.92 g/m*3 20.9 C 0 km/h
294 25-05-2010 10:40:02 21.2 C 6.67 g/m*3 21.2 C 0 km/h
295 25-05-2010 10:52:02 21 C 6.59 g/m*3 21 C 0 km/h
296 25-05-2010 11:04:02 21.2 C 6.49 g/m*3 21.2 C 0 km/h
297 25-05-2010 11:16:02 21.2 C 7.04 g/m*3 21.2 C 0 km/h
298 25-05-2010 11:28:02 21.2 C 6.3 g/m*3 21.2 C 0 km/h
299 25-05-2010 11:40:02 21.8 C 6.33 g/m*3 21.8 C 0 km/h
300 25-05-2010 11:52:02 22.8 C 6.1 g/m*3 22.8 C 0 km/h
Sensor: Nr:Datum:Temp:Abs-Feuchte:Windchill:Wind:
Aussen-T/F 301 25-05-2010 12:04:01 22.6 C 5.42 g/m*3 22.6 C 0 km/h
302 25-05-2010 12:16:01 23.7 C 5.78 g/m*3 23.7 C 0 km/h
303 25-05-2010 12:28:01 23.5 C 5.71 g/m*3 23.5 C 0 km/h
304 25-05-2010 12:40:02 24 C 5.44 g/m*3 24 C 0 km/h
305 25-05-2010 12:52:02 25.9 C 6.05 g/m*3 25.9 C 0 km/h
306 25-05-2010 13:04:01 25.5 C 5.21 g/m*3 25.5 C 0 km/h
307 25-05-2010 13:16:02 26.2 C 5.42 g/m*3 26.2 C 0 km/h
308 25-05-2010 13:28:02 27.3 C 5.23 g/m*3 27.3 C 0 km/h
309 25-05-2010 13:40:01 27.8 C 5.38 g/m*3 27.8 C 0 km/h
310 25-05-2010 13:52:02 26.8 C 5.35 g/m*3 26.8 C 0 km/h
311 25-05-2010 14:04:01 25.3 C 5.15 g/m*3 25.3 C 0 km/h
312 25-05-2010 14:16:02 26.1 C 5.63 g/m*3 26.1 C 0 km/h
313 25-05-2010 14:28:03 26.5 C 5.76 g/m*3 26.5 C 0 km/h
314 25-05-2010 14:40:01 26.7 C 5.82 g/m*3 26.7 C 0 km/h
315 25-05-2010 14:52:02 27 C 5.4 g/m*3 27 C 0 km/h
316 25-05-2010 15:04:02 27.4 C 6.05 g/m*3 27.4 C 0 km/h
317 25-05-2010 15:16:02 26.3 C 5.69 g/m*3 26.3 C 0 km/h
318 25-05-2010 15:28:02 26.6 C 5.79 g/m*3 26.6 C 0 km/h
319 25-05-2010 15:40:02 26.5 C 5.51 g/m*3 26.5 C 0 km/h
320 25-05-2010 15:52:02 27.7 C 5.62 g/m*3 27.7 C 0 km/h
321 25-05-2010 16:04:02 28.1 C 5.47 g/m*3 28.1 C 0 km/h
322 25-05-2010 16:16:01 27.6 C 5.85 g/m*3 27.6 C 0 km/h
323 25-05-2010 16:28:01 27.9 C 5.95 g/m*3 27.9 C 0 km/h
324 25-05-2010 16:40:02 27.9 C 6.22 g/m*3 27.9 C 0 km/h
325 25-05-2010 16:52:02 28.1 C 5.74 g/m*3 28.1 C 0 km/h
Sensor: Nr:Datum:Temp:Abs-Feuchte:Windchill:Wind:
Aussen-T/F 326 25-05-2010 17:04:02 28.7 C 6.22 g/m*3 28.7 C 0 km/h
327 25-05-2010 17:16:02 27.5 C 5.82 g/m*3 27.5 C 0 km/h
328 25-05-2010 17:28:02 28.6 C 5.9 g/m*3 28.6 C 0 km/h
329 25-05-2010 17:40:02 28.1 C 6.02 g/m*3 28.1 C 0 km/h
330 25-05-2010 17:52:02 27.4 C 6.05 g/m*3 27.4 C 0 km/h
331 25-05-2010 18:04:02 27.2 C 5.99 g/m*3 27.2 C 0 km/h
332 25-05-2010 18:16:02 26 C 5.36 g/m*3 26 C 0 km/h
333 25-05-2010 18:28:02 27 C 5.66 g/m*3 27 C 0 km/h
334 25-05-2010 18:40:02 25.8 C 5.78 g/m*3 25.8 C 0 km/h
335 25-05-2010 18:52:02 25.6 C 5.71 g/m*3 25.6 C 0 km/h
336 25-05-2010 19:04:02 25.2 C 5.82 g/m*3 25.2 C 0 km/h
337 25-05-2010 19:16:02 25.2 C 5.82 g/m*3 25.2 C 0 km/h
338 25-05-2010 19:28:02 24 C 5.87 g/m*3 24 C 0 km/h
339 25-05-2010 19:40:02 24.2 C 5.94 g/m*3 24.2 C 0 km/h
340 25-05-2010 19:52:02 23.7 C 6.2 g/m*3 23.7 C 0 km/h
341 25-05-2010 20:04:02 23.5 C 6.13 g/m*3 23.5 C 0 km/h
342 25-05-2010 20:16:03 23.2 C 6.24 g/m*3 23.2 C 0 km/h
343 25-05-2010 20:28:03 22.8 C 6.3 g/m*3 22.8 C 0 km/h
344 25-05-2010 20:40:02 22.5 C 6.19 g/m*3 22.5 C 0 km/h
345 25-05-2010 20:52:02 22.2 C 6.28 g/m*3 22.2 C 0 km/h
346 25-05-2010 21:04:02 22 C 6.4 g/m*3 22 C 0 km/h
347 25-05-2010 21:16:02 21.7 C 6.87 g/m*3 21.7 C 0 km/h
348 25-05-2010 21:28:02 21.2 C 7.04 g/m*3 21.2 C 0 km/h
349 25-05-2010 21:40:02 20.7 C 7.2 g/m*3 20.7 C 0 km/h
350 25-05-2010 21:52:02 20.3 C 6.86 g/m*3 20.3 C 0 km/h
Sensor: Nr:Datum:Temp:Abs-Feuchte:Windchill:Wind:
Aussen-T/F 351 25-05-2010 22:04:02 19.7 C 6.79 g/m*3 19.7 C 0 km/h
352 25-05-2010 22:16:02 19.5 C 6.88 g/m*3 19.5 C 0 km/h
353 25-05-2010 22:28:02 19.3 C 6.97 g/m*3 19.3 C 0 km/h
354 25-05-2010 22:41:48 19.4 C 7.01 g/m*3 19.4 C 0 km/h
355 25-05-2010 22:53:48 19.3 C 6.8 g/m*3 19.3 C 0 km/h
356 25-05-2010 23:05:48 19.1 C 6.56 g/m*3 19.1 C 0 km/h
357 25-05-2010 23:17:48 18.8 C 6.76 g/m*3 18.8 C 0 km/h
358 25-05-2010 23:29:48 18.8 C 7.09 g/m*3 18.8 C 0 km/h
359 25-05-2010 23:41:48 18.7 C 6.88 g/m*3 18.7 C 0 km/h
360 25-05-2010 23:53:48 18.8 C 6.93 g/m*3 18.8 C 0 km/h
361 26-05-2010 00:05:48 18.9 C 6.8 g/m*3 18.9 C 0 km/h
362 26-05-2010 00:17:48 18.7 C 6.72 g/m*3 18.7 C 0 km/h
363 26-05-2010 00:29:48 18.5 C 6.8 g/m*3 18.5 C 0 km/h
364 26-05-2010 00:41:48 18.3 C 6.25 g/m*3 18.3 C 0 km/h
365 26-05-2010 00:53:48 18.2 C 6.22 g/m*3 18.2 C 0 km/h
366 26-05-2010 01:05:48 18.1 C 6.03 g/m*3 18.1 C 0 km/h
367 26-05-2010 01:17:49 18.1 C 6.03 g/m*3 18.1 C 0 km/h
368 26-05-2010 01:29:49 17.9 C 6.41 g/m*3 17.9 C 0 km/h
369 26-05-2010 01:41:49 15.8 C 7.81 g/m*3 15.8 C 0 km/h
370 26-05-2010 01:53:49 14.4 C 7.91 g/m*3 14.4 C 0 km/h
371 26-05-2010 02:05:49 14.2 C 8.3 g/m*3 14.2 C 0 km/h
372 26-05-2010 02:17:49 14.6 C 8.38 g/m*3 14.6 C 0 km/h
373 26-05-2010 02:29:49 14.6 C 8.38 g/m*3 14.6 C 0 km/h
374 26-05-2010 02:41:49 14.3 C 8.72 g/m*3 14.3 C 0 km/h
375 26-05-2010 02:53:49 14.4 C 9.02 g/m*3 14.4 C 0 km/h
Sensor: Nr:Datum:Temp:Abs-Feuchte:Windchill:Wind:
Aussen-T/F 376 26-05-2010 03:05:49 14.4 C 8.9 g/m*3 14.4 C 0 km/h
377 26-05-2010 03:17:50 14.5 C 8.58 g/m*3 14.5 C 0 km/h
378 26-05-2010 03:29:50 14.8 C 8.49 g/m*3 14.8 C 0 km/h
379 26-05-2010 03:41:50 14.7 C 8.18 g/m*3 14.7 C 0 km/h
380 26-05-2010 03:53:50 14.6 C 8.01 g/m*3 14.6 C 0 km/h
381 26-05-2010 04:05:50 14.8 C 7.85 g/m*3 14.8 C 0 km/h
382 26-05-2010 04:17:50 14.7 C 7.81 g/m*3 14.7 C 0 km/h
383 26-05-2010 04:29:50 14.7 C 7.68 g/m*3 14.7 C 0 km/h
384 26-05-2010 04:41:50 14.7 C 7.55 g/m*3 14.7 C 0 km/h
385 26-05-2010 04:53:50 14.7 C 7.55 g/m*3 14.7 C 0 km/h
386 26-05-2010 05:05:50 14.7 C 7.3 g/m*3 14.7 C 0 km/h
387 26-05-2010 05:17:50 14.7 C 7.43 g/m*3 14.7 C 0 km/h
388 26-05-2010 05:29:50 14.7 C 7.3 g/m*3 14.7 C 0 km/h
389 26-05-2010 05:41:50 14.7 C 7.43 g/m*3 14.7 C 0 km/h
390 26-05-2010 05:53:50 14.5 C 7.34 g/m*3 14.5 C 0 km/h
391 26-05-2010 06:05:50 14.7 C 7.55 g/m*3 14.7 C 0 km/h
392 26-05-2010 06:17:51 14.7 C 7.68 g/m*3 14.7 C 0 km/h
393 26-05-2010 06:29:51 14.5 C 7.84 g/m*3 14.5 C 0 km/h
394 26-05-2010 06:41:51 14.7 C 8.06 g/m*3 14.7 C 0 km/h
395 26-05-2010 06:53:51 14.8 C 7.85 g/m*3 14.8 C 0 km/h
396 26-05-2010 07:05:03 15 C 7.18 g/m*3 15 C 0 km/h
397 26-05-2010 07:17:02 15.4 C 6.83 g/m*3 15.4 C 0 km/h
398 26-05-2010 07:29:02 15.8 C 6.46 g/m*3 15.8 C 0 km/h
399 26-05-2010 07:41:03 16 C 6.27 g/m*3 16 C 0 km/h
400 26-05-2010 07:53:02 16.2 C 6.48 g/m*3 16.2 C 0 km/h
Sensor: Nr:Datum:Temp:Abs-Feuchte:Windchill:Wind:
Aussen-T/F 401 26-05-2010 08:05:02 16 C 6.4 g/m*3 16 C 0 km/h
402 26-05-2010 08:17:02 15.9 C 6.37 g/m*3 15.9 C 0 km/h
403 26-05-2010 08:29:02 15.8 C 6.33 g/m*3 15.8 C 0 km/h
404 26-05-2010 08:41:02 15.9 C 6.64 g/m*3 15.9 C 0 km/h
405 26-05-2010 08:53:02 16.2 C 6.48 g/m*3 16.2 C 0 km/h
406 26-05-2010 09:05:02 16.9 C 6.47 g/m*3 16.9 C 0 km/h
407 26-05-2010 09:17:02 17.1 C 6.11 g/m*3 17.1 C 0 km/h
408 26-05-2010 09:29:02 17 C 6.22 g/m*3 17 C 0 km/h
409 26-05-2010 09:41:01 16.4 C 6.7 g/m*3 16.4 C 0 km/h
410 26-05-2010 09:53:02 16 C 6.81 g/m*3 16 C 0 km/h
411 26-05-2010 10:05:01 16.4 C 6.56 g/m*3 16.4 C 0 km/h
412 26-05-2010 10:17:02 15.8 C 7.4 g/m*3 15.8 C 0 km/h
413 26-05-2010 10:29:02 15.1 C 8 g/m*3 15.1 C 0 km/h
414 26-05-2010 10:41:02 14.1 C 8.86 g/m*3 14.1 C 0 km/h
415 26-05-2010 10:53:02 14.2 C 9.4 g/m*3 14.2 C 0 km/h
416 26-05-2010 11:05:02 13.4 C 9.18 g/m*3 13.4 C 0 km/h
417 26-05-2010 11:17:02 12.9 C 9.35 g/m*3 12.9 C 0 km/h
418 26-05-2010 11:29:02 13.2 C 9.64 g/m*3 13.2 C 0 km/h
419 26-05-2010 11:41:02 13.3 C 9.82 g/m*3 13.3 C 0 km/h
420 26-05-2010 11:53:01 13.4 C 10 g/m*3 13.4 C 0 km/h
421 26-05-2010 12:05:02 13.2 C 9.87 g/m*3 13.2 C 0 km/h
422 26-05-2010 12:17:01 13.3 C 9.94 g/m*3 13.3 C 0 km/h
423 26-05-2010 12:29:01 13.2 C 9.87 g/m*3 13.2 C 0 km/h
424 26-05-2010 12:41:01 12.8 C 9.74 g/m*3 12.8 C 0 km/h
425 26-05-2010 12:53:01 13 C 9.87 g/m*3 13 C 0 km/h
Sensor: Nr:Datum:Temp:Abs-Feuchte:Windchill:Wind:
Aussen-T/F 426 26-05-2010 13:05:02 12.8 C 9.74 g/m*3 12.8 C 0 km/h
427 26-05-2010 13:17:02 13.2 C 10.1 g/m*3 13.2 C 0 km/h
428 26-05-2010 13:29:02 12.8 C 9.74 g/m*3 12.8 C 0 km/h
429 26-05-2010 13:41:01 12.6 C 9.51 g/m*3 12.6 C 0 km/h
430 26-05-2010 13:53:01 13 C 9.75 g/m*3 13 C 0 km/h
431 26-05-2010 14:05:01 13.9 C 9.83 g/m*3 13.9 C 0 km/h
432 26-05-2010 14:17:02 15.2 C 10.12 g/m*3 15.2 C 0 km/h
433 26-05-2010 14:29:02 15.8 C 9.83 g/m*3 15.8 C 0 km/h
434 26-05-2010 14:41:01 15.6 C 9.44 g/m*3 15.6 C 0 km/h
435 26-05-2010 14:53:03 15.5 C 9.39 g/m*3 15.5 C 0 km/h
436 26-05-2010 15:05:02 15.4 C 9.33 g/m*3 15.4 C 0 km/h
437 26-05-2010 15:17:02 14.5 C 9.45 g/m*3 14.5 C 0 km/h
438 26-05-2010 15:29:02 14.1 C 9.59 g/m*3 14.1 C 0 km/h
439 26-05-2010 15:41:02 14.4 C 10.01 g/m*3 14.4 C 0 km/h
440 26-05-2010 15:53:02 15.4 C 10.77 g/m*3 15.4 C 0 km/h
441 26-05-2010 16:05:01 17.8 C 11.23 g/m*3 17.8 C 0 km/h
442 26-05-2010 16:17:02 19.4 C 11.18 g/m*3 19.4 C 0 km/h
443 26-05-2010 16:29:02 20.3 C 10.73 g/m*3 20.3 C 0 km/h
444 26-05-2010 16:41:02 18.8 C 9.99 g/m*3 18.8 C 0 km/h
445 26-05-2010 16:53:02 18.5 C 9.97 g/m*3 18.5 C 0 km/h
446 26-05-2010 17:05:03 16.8 C 10.58 g/m*3 16.8 C 0 km/h
447 26-05-2010 17:17:02 16.2 C 10.76 g/m*3 16.2 C 0 km/h
448 26-05-2010 17:29:02 15.6 C 11.17 g/m*3 15.6 C 0 km/h
449 26-05-2010 17:41:02 16.2 C 11.86 g/m*3 16.2 C 0 km/h
450 26-05-2010 17:53:02 17.1 C 12.52 g/m*3 17.1 C 0 km/h
Sensor: Nr:Datum:Temp:Abs-Feuchte:Windchill:Wind:
Aussen-T/F 451 26-05-2010 18:05:02 16.1 C 11.51 g/m*3 16.1 C 0 km/h
452 26-05-2010 18:17:02 15.5 C 11.5 g/m*3 15.5 C 0 km/h
453 26-05-2010 18:29:02 17 C 12.73 g/m*3 17 C 0 km/h
454 26-05-2010 18:41:01 18.7 C 13.93 g/m*3 18.7 C 0 km/h
455 26-05-2010 18:53:02 18.8 C 13.69 g/m*3 18.8 C 0 km/h
456 26-05-2010 19:05:01 19.1 C 13.28 g/m*3 19.1 C 0 km/h
457 26-05-2010 19:17:01 19.2 C 13.19 g/m*3 19.2 C 0 km/h
458 26-05-2010 19:29:01 19.2 C 13.03 g/m*3 19.2 C 0 km/h
459 26-05-2010 19:41:02 19.3 C 12.77 g/m*3 19.3 C 0 km/h
460 26-05-2010 19:53:02 18.1 C 11.9 g/m*3 18.1 C 0 km/h
461 26-05-2010 20:05:02 17.2 C 11.72 g/m*3 17.2 C 0 km/h
462 26-05-2010 20:17:02 17.2 C 11.86 g/m*3 17.2 C 0 km/h
463 26-05-2010 20:29:02 17 C 11.87 g/m*3 17 C 0 km/h
464 26-05-2010 20:41:02 16.7 C 11.8 g/m*3 16.7 C 0 km/h
465 26-05-2010 20:53:02 16.2 C 11.58 g/m*3 16.2 C 0 km/h
466 26-05-2010 21:05:03 16.1 C 11.65 g/m*3 16.1 C 0 km/h
467 26-05-2010 21:17:02 16 C 11.72 g/m*3 16 C 0 km/h
468 26-05-2010 21:29:02 15.7 C 10.97 g/m*3 15.7 C 0 km/h
469 26-05-2010 21:41:03 14.6 C 9.89 g/m*3 14.6 C 0 km/h
470 26-05-2010 21:53:02 13.6 C 9.18 g/m*3 13.6 C 0 km/h
471 26-05-2010 22:05:02 13.1 C 8.9 g/m*3 13.1 C 0 km/h
472 26-05-2010 22:18:04 13.1 C 9.01 g/m*3 13.1 C 0 km/h
473 26-05-2010 22:30:04 12.9 C 9.02 g/m*3 12.9 C 0 km/h
474 26-05-2010 22:42:04 12.6 C 8.63 g/m*3 12.6 C 0 km/h
475 26-05-2010 22:54:04 12.6 C 8.63 g/m*3 12.6 C 0 km/h
Sensor: Nr:Datum:Temp:Abs-Feuchte:Windchill:Wind:
Aussen-T/F 476 26-05-2010 23:06:04 12.7 C 8.91 g/m*3 12.7 C 0 km/h
477 26-05-2010 23:18:04 12.5 C 8.47 g/m*3 12.5 C 0 km/h
478 26-05-2010 23:30:04 12.4 C 8.3 g/m*3 12.4 C 0 km/h
479 26-05-2010 23:42:05 12.5 C 8.47 g/m*3 12.5 C 0 km/h
480 26-05-2010 23:54:05 12.5 C 8.36 g/m*3 12.5 C 0 km/h
481 27-05-2010 00:06:05 12.5 C 8.47 g/m*3 12.5 C 0 km/h
482 27-05-2010 00:18:05 12.4 C 8.41 g/m*3 12.4 C 0 km/h
483 27-05-2010 00:30:05 12.4 C 8.41 g/m*3 12.4 C 0 km/h
484 27-05-2010 00:42:05 12.3 C 8.36 g/m*3 12.3 C 0 km/h
485 27-05-2010 00:54:05 12.2 C 8.31 g/m*3 12.2 C 0 km/h
486 27-05-2010 01:06:05 12.3 C 8.25 g/m*3 12.3 C 0 km/h
487 27-05-2010 01:18:05 12.2 C 8.2 g/m*3 12.2 C 0 km/h
488 27-05-2010 01:30:05 11.7 C 7.95 g/m*3 11.7 C 0 km/h
489 27-05-2010 01:42:05 11.8 C 8.21 g/m*3 11.8 C 0 km/h
490 27-05-2010 01:54:05 11.5 C 8.16 g/m*3 11.5 C 0 km/h
491 27-05-2010 02:06:05 11.4 C 8.21 g/m*3 11.4 C 0 km/h
492 27-05-2010 02:18:05 11.3 C 8.16 g/m*3 11.3 C 0 km/h
493 27-05-2010 02:30:05 11.2 C 8.01 g/m*3 11.2 C 0 km/h
494 27-05-2010 02:42:05 11.2 C 8.11 g/m*3 11.2 C 0 km/h
495 27-05-2010 02:54:05 11.1 C 8.06 g/m*3 11.1 C 0 km/h
496 27-05-2010 03:06:05 11.1 C 8.06 g/m*3 11.1 C 0 km/h
497 27-05-2010 03:18:05 11.3 C 8.06 g/m*3 11.3 C 0 km/h
498 27-05-2010 03:30:05 11.2 C 8.01 g/m*3 11.2 C 0 km/h
499 27-05-2010 03:42:05 11.2 C 7.91 g/m*3 11.2 C 0 km/h
500 27-05-2010 03:54:05 11 C 7.81 g/m*3 11 C 0 km/h
Sensor: Nr:Datum:Temp:Abs-Feuchte:Windchill:Wind:
Aussen-T/F 501 27-05-2010 04:06:06 11 C 7.91 g/m*3 11 C 0 km/h
502 27-05-2010 04:18:06 11 C 7.91 g/m*3 11 C 0 km/h
503 27-05-2010 04:30:06 10.9 C 7.86 g/m*3 10.9 C 0 km/h
504 27-05-2010 04:42:06 10.8 C 7.81 g/m*3 10.8 C 0 km/h
505 27-05-2010 04:54:06 10.7 C 7.76 g/m*3 10.7 C 0 km/h
506 27-05-2010 05:06:06 10.7 C 7.76 g/m*3 10.7 C 0 km/h
507 27-05-2010 05:18:06 10.7 C 7.76 g/m*3 10.7 C 0 km/h
508 27-05-2010 05:30:06 10.7 C 7.76 g/m*3 10.7 C 0 km/h
509 27-05-2010 05:42:06 10.8 C 7.81 g/m*3 10.8 C 0 km/h
510 27-05-2010 05:54:06 10.8 C 7.81 g/m*3 10.8 C 0 km/h
511 27-05-2010 06:06:06 10.8 C 7.81 g/m*3 10.8 C 0 km/h
512 27-05-2010 06:18:06 10.9 C 7.86 g/m*3 10.9 C 0 km/h
513 27-05-2010 06:30:06 11.1 C 7.86 g/m*3 11.1 C 0 km/h
514 27-05-2010 06:42:03 11.1 C 7.86 g/m*3 11.1 C 0 km/h
515 27-05-2010 06:54:02 11.1 C 7.86 g/m*3 11.1 C 0 km/h
516 27-05-2010 07:06:02 11.1 C 7.96 g/m*3 11.1 C 0 km/h
517 27-05-2010 07:18:03 11.2 C 7.91 g/m*3 11.2 C 0 km/h
518 27-05-2010 07:30:03 11.4 C 7.9 g/m*3 11.4 C 0 km/h
519 27-05-2010 07:42:02 11.5 C 8.06 g/m*3 11.5 C 0 km/h
520 27-05-2010 07:54:03 11.3 C 7.96 g/m*3 11.3 C 0 km/h
521 27-05-2010 08:06:02 11.4 C 8.11 g/m*3 11.4 C 0 km/h
522 27-05-2010 08:18:02 11.7 C 8.16 g/m*3 11.7 C 0 km/h
523 27-05-2010 08:30:03 11.7 C 8.16 g/m*3 11.7 C 0 km/h
524 27-05-2010 08:42:02 12 C 8.1 g/m*3 12 C 0 km/h
525 27-05-2010 08:54:02 11.8 C 7.79 g/m*3 11.8 C 0 km/h
Sensor: Nr:Datum:Temp:Abs-Feuchte:Windchill:Wind:
Aussen-T/F 526 27-05-2010 09:06:01 12 C 7.89 g/m*3 12 C 0 km/h
527 27-05-2010 09:18:02 11.9 C 7.73 g/m*3 11.9 C 0 km/h
528 27-05-2010 09:30:02 11.8 C 7.79 g/m*3 11.8 C 0 km/h
529 27-05-2010 09:42:01 12.2 C 7.88 g/m*3 12.2 C 0 km/h
530 27-05-2010 09:54:02 12.2 C 7.66 g/m*3 12.2 C 0 km/h
531 27-05-2010 10:06:02 12.4 C 7.65 g/m*3 12.4 C 0 km/h
532 27-05-2010 10:18:02 13 C 7.71 g/m*3 13 C 0 km/h
533 27-05-2010 10:30:02 13.2 C 7.58 g/m*3 13.2 C 0 km/h
534 27-05-2010 10:42:03 13.4 C 7.56 g/m*3 13.4 C 0 km/h
535 27-05-2010 10:54:02 13.2 C 7.23 g/m*3 13.2 C 0 km/h
536 27-05-2010 11:06:02 14.1 C 7.16 g/m*3 14.1 C 0 km/h
537 27-05-2010 11:18:01 14.6 C 7.13 g/m*3 14.6 C 0 km/h
538 27-05-2010 11:30:01 14.4 C 7.17 g/m*3 14.4 C 0 km/h
539 27-05-2010 11:42:02 15 C 6.8 g/m*3 15 C 0 km/h
540 27-05-2010 11:54:02 15.9 C 7.31 g/m*3 15.9 C 0 km/h
541 27-05-2010 12:06:02 16.1 C 6.72 g/m*3 16.1 C 0 km/h
542 27-05-2010 12:18:01 16.4 C 6.7 g/m*3 16.4 C 0 km/h
543 27-05-2010 12:30:01 16.7 C 6.82 g/m*3 16.7 C 0 km/h
544 27-05-2010 12:42:02 16 C 6.68 g/m*3 16 C 0 km/h
545 27-05-2010 12:54:02 15.5 C 6.74 g/m*3 15.5 C 0 km/h
546 27-05-2010 13:06:02 16 C 6.68 g/m*3 16 C 0 km/h
547 27-05-2010 13:18:02 16.5 C 6.74 g/m*3 16.5 C 0 km/h
548 27-05-2010 13:30:02 17.6 C 6.45 g/m*3 17.6 C 0 km/h
549 27-05-2010 13:42:02 18 C 6.45 g/m*3 18 C 0 km/h
550 27-05-2010 13:54:02 19.1 C 6.39 g/m*3 19.1 C 0 km/h
Sensor: Nr:Datum:Temp:Abs-Feuchte:Windchill:Wind:
Aussen-T/F 551 27-05-2010 14:06:03 19.6 C 6.58 g/m*3 19.6 C 0 km/h
552 27-05-2010 14:18:02 18.7 C 6.08 g/m*3 18.7 C 0 km/h
553 27-05-2010 14:30:02 20.6 C 7.16 g/m*3 20.6 C 0 km/h
554 27-05-2010 14:42:02 21.7 C 6.68 g/m*3 21.7 C 0 km/h
555 27-05-2010 14:54:02 22.5 C 6.59 g/m*3 22.5 C 0 km/h
556 27-05-2010 15:06:01 22.5 C 6.79 g/m*3 22.5 C 0 km/h
557 27-05-2010 15:18:02 21.5 C 6.22 g/m*3 21.5 C 0 km/h
558 27-05-2010 15:30:02 21.9 C 6.18 g/m*3 21.9 C 0 km/h
559 27-05-2010 15:42:02 22.3 C 6.12 g/m*3 22.3 C 0 km/h
560 27-05-2010 15:54:03 23.3 C 6.69 g/m*3 23.3 C 0 km/h
561 27-05-2010 16:06:02 23.7 C 5.99 g/m*3 23.7 C 0 km/h
562 27-05-2010 16:18:02 23.5 C 6.34 g/m*3 23.5 C 0 km/h
563 27-05-2010 16:30:02 23.3 C 6.48 g/m*3 23.3 C 0 km/h
564 27-05-2010 16:42:02 22.9 C 6.74 g/m*3 22.9 C 0 km/h
565 27-05-2010 16:54:02 23.4 C 6.73 g/m*3 23.4 C 0 km/h
566 27-05-2010 17:06:02 23.6 C 6.59 g/m*3 23.6 C 0 km/h
567 27-05-2010 17:18:02 23.3 C 6.48 g/m*3 23.3 C 0 km/h
568 27-05-2010 17:30:02 23.5 C 6.56 g/m*3 23.5 C 0 km/h
569 27-05-2010 17:42:02 23.4 C 6.73 g/m*3 23.4 C 0 km/h
570 27-05-2010 17:54:01 23.4 C 6.94 g/m*3 23.4 C 0 km/h
571 27-05-2010 18:06:02 24.1 C 6.78 g/m*3 24.1 C 0 km/h
572 27-05-2010 18:18:02 23.3 C 6.69 g/m*3 23.3 C 0 km/h
573 27-05-2010 18:30:02 22.3 C 7.5 g/m*3 22.3 C 0 km/h
574 27-05-2010 18:42:02 22.4 C 7.35 g/m*3 22.4 C 0 km/h
575 27-05-2010 18:54:01 23.3 C 7.32 g/m*3 23.3 C 0 km/h
Sensor: Nr:Datum:Temp:Abs-Feuchte:Windchill:Wind:
Aussen-T/F 576 27-05-2010 19:06:02 22.7 C 7.88 g/m*3 22.7 C 0 km/h
577 27-05-2010 19:18:02 21.6 C 7.78 g/m*3 21.6 C 0 km/h
578 27-05-2010 19:30:02 20.6 C 8.59 g/m*3 20.6 C 0 km/h
579 27-05-2010 19:42:01 19.9 C 8.76 g/m*3 19.9 C 0 km/h
580 27-05-2010 19:54:02 19.4 C 8.51 g/m*3 19.4 C 0 km/h
581 27-05-2010 20:06:01 19.1 C 8.36 g/m*3 19.1 C 0 km/h
582 27-05-2010 20:18:02 18.7 C 8.49 g/m*3 18.7 C 0 km/h
583 27-05-2010 20:30:02 18.3 C 8.44 g/m*3 18.3 C 0 km/h
584 27-05-2010 20:42:01 17.5 C 9.39 g/m*3 17.5 C 0 km/h
585 27-05-2010 20:54:01 16.6 C 9.61 g/m*3 16.6 C 0 km/h
586 27-05-2010 21:06:02 15.8 C 9.56 g/m*3 15.8 C 0 km/h
587 27-05-2010 21:18:01 15.6 C 9.58 g/m*3 15.6 C 0 km/h
588 27-05-2010 21:30:01 15.8 C 9.69 g/m*3 15.8 C 0 km/h
589 27-05-2010 21:42:01 15.9 C 9.62 g/m*3 15.9 C 0 km/h
590 27-05-2010 21:54:01 15.8 C 9.29 g/m*3 15.8 C 0 km/h
591 27-05-2010 22:06:01 16 C 9.4 g/m*3 16 C 0 km/h
592 27-05-2010 22:18:01 16.1 C 9.18 g/m*3 16.1 C 0 km/h
593 27-05-2010 22:30:01 16.2 C 9.24 g/m*3 16.2 C 0 km/h
594 27-05-2010 22:42:02 16 C 9.13 g/m*3 16 C 0 km/h
595 27-05-2010 22:55:03 16 C 9.4 g/m*3 16 C 0 km/h
596 27-05-2010 23:07:03 15.6 C 9.71 g/m*3 15.6 C 0 km/h
597 27-05-2010 23:19:03 15.6 C 9.71 g/m*3 15.6 C 0 km/h
598 27-05-2010 23:31:03 15.7 C 9.77 g/m*3 15.7 C 0 km/h
599 27-05-2010 23:43:03 15.6 C 9.71 g/m*3 15.6 C 0 km/h
600 27-05-2010 23:55:03 15.3 C 9.66 g/m*3 15.3 C 0 km/h
Sensor: Nr:Datum:Temp:Abs-Feuchte:Windchill:Wind:
Aussen-T/F 601 28-05-2010 00:07:03 14.9 C 9.69 g/m*3 14.9 C 0 km/h
602 28-05-2010 00:19:03 14.9 C 9.81 g/m*3 14.9 C 0 km/h
603 28-05-2010 00:31:03 15 C 9.75 g/m*3 15 C 0 km/h
604 28-05-2010 00:43:03 15 C 9.49 g/m*3 15 C 0 km/h
605 28-05-2010 00:55:03 15.2 C 9.48 g/m*3 15.2 C 0 km/h
606 28-05-2010 01:07:03 15.2 C 9.35 g/m*3 15.2 C 0 km/h
607 28-05-2010 01:19:03 15.2 C 9.22 g/m*3 15.2 C 0 km/h
608 28-05-2010 01:31:03 15.2 C 9.09 g/m*3 15.2 C 0 km/h
609 28-05-2010 01:43:03 15.1 C 9.03 g/m*3 15.1 C 0 km/h
610 28-05-2010 01:55:03 15 C 9.1 g/m*3 15 C 0 km/h
611 28-05-2010 02:07:04 14.8 C 9.12 g/m*3 14.8 C 0 km/h
612 28-05-2010 02:19:04 14.9 C 9.3 g/m*3 14.9 C 0 km/h
613 28-05-2010 02:31:04 14.8 C 9.25 g/m*3 14.8 C 0 km/h
614 28-05-2010 02:43:04 14.9 C 9.3 g/m*3 14.9 C 0 km/h
615 28-05-2010 02:55:04 14.9 C 9.18 g/m*3 14.9 C 0 km/h
616 28-05-2010 03:07:04 14.9 C 9.18 g/m*3 14.9 C 0 km/h
617 28-05-2010 03:19:04 15 C 9.1 g/m*3 15 C 0 km/h
618 28-05-2010 03:31:04 14.7 C 9.19 g/m*3 14.7 C 0 km/h
619 28-05-2010 03:43:04 14.7 C 9.19 g/m*3 14.7 C 0 km/h
620 28-05-2010 03:55:04 14.6 C 9.13 g/m*3 14.6 C 0 km/h
621 28-05-2010 04:07:04 14.6 C 9.01 g/m*3 14.6 C 0 km/h
622 28-05-2010 04:19:04 14.6 C 9.01 g/m*3 14.6 C 0 km/h
623 28-05-2010 04:31:04 14.5 C 8.95 g/m*3 14.5 C 0 km/h
624 28-05-2010 04:43:04 14.1 C 9.34 g/m*3 14.1 C 0 km/h
625 28-05-2010 04:55:04 14 C 9.65 g/m*3 14 C 0 km/h
Sensor: Nr:Datum:Temp:Abs-Feuchte:Windchill:Wind:
Aussen-T/F 626 28-05-2010 05:07:04 13.8 C 9.77 g/m*3 13.8 C 0 km/h
627 28-05-2010 05:19:04 13.7 C 9.83 g/m*3 13.7 C 0 km/h
628 28-05-2010 05:31:04 13.7 C 9.83 g/m*3 13.7 C 0 km/h
629 28-05-2010 05:43:04 13.7 C 9.95 g/m*3 13.7 C 0 km/h
630 28-05-2010 05:55:04 13.6 C 10 g/m*3 13.6 C 0 km/h
631 28-05-2010 06:07:04 13.6 C 10 g/m*3 13.6 C 0 km/h
632 28-05-2010 06:19:04 13.5 C 9.94 g/m*3 13.5 C 0 km/h
633 28-05-2010 06:31:04 13.5 C 10.06 g/m*3 13.5 C 0 km/h
634 28-05-2010 06:43:05 13.7 C 10.18 g/m*3 13.7 C 0 km/h
635 28-05-2010 06:55:05 13.8 C 10.37 g/m*3 13.8 C 0 km/h
636 28-05-2010 07:07:03 13.8 C 10.37 g/m*3 13.8 C 0 km/h
637 28-05-2010 07:19:03 13.8 C 10.37 g/m*3 13.8 C 0 km/h
638 28-05-2010 07:31:02 14.1 C 10.56 g/m*3 14.1 C 0 km/h
639 28-05-2010 07:43:02 14.1 C 10.56 g/m*3 14.1 C 0 km/h
640 28-05-2010 07:55:01 14.1 C 10.56 g/m*3 14.1 C 0 km/h
641 28-05-2010 08:07:02 14.2 C 10.5 g/m*3 14.2 C 0 km/h
642 28-05-2010 08:19:02 14.1 C 10.44 g/m*3 14.1 C 0 km/h
643 28-05-2010 08:31:01 14.2 C 10.5 g/m*3 14.2 C 0 km/h
644 28-05-2010 08:43:01 14.5 C 10.7 g/m*3 14.5 C 0 km/h
645 28-05-2010 08:55:01 14.8 C 10.77 g/m*3 14.8 C 0 km/h
646 28-05-2010 09:07:01 15.2 C 10.64 g/m*3 15.2 C 0 km/h
647 28-05-2010 09:19:02 15.2 C 10.25 g/m*3 15.2 C 0 km/h
648 28-05-2010 09:31:01 15.2 C 9.48 g/m*3 15.2 C 0 km/h
649 28-05-2010 09:43:01 15.8 C 9.29 g/m*3 15.8 C 0 km/h
650 28-05-2010 09:55:03 14.2 C 8.91 g/m*3 14.2 C 0 km/h
Sensor: Nr:Datum:Temp:Abs-Feuchte:Windchill:Wind:
Aussen-T/F 651 28-05-2010 10:07:02 15.5 C 9.25 g/m*3 15.5 C 0 km/h
652 28-05-2010 10:19:02 15.5 C 8.59 g/m*3 15.5 C 0 km/h
653 28-05-2010 10:31:02 15.6 C 8.25 g/m*3 15.6 C 0 km/h
654 28-05-2010 10:43:02 15.6 C 8.51 g/m*3 15.6 C 0 km/h
655 28-05-2010 10:55:02 16 C 8.17 g/m*3 16 C 0 km/h
656 28-05-2010 11:07:02 16.3 C 7.63 g/m*3 16.3 C 0 km/h
657 28-05-2010 11:19:02 17.6 C 7.65 g/m*3 17.6 C 0 km/h
658 28-05-2010 11:31:02 16.9 C 7.05 g/m*3 16.9 C 0 km/h
659 28-05-2010 11:43:02 18 C 7.22 g/m*3 18 C 0 km/h
660 28-05-2010 11:55:02 17.2 C 6.74 g/m*3 17.2 C 0 km/h
661 28-05-2010 12:07:01 17.8 C 6.83 g/m*3 17.8 C 0 km/h
662 28-05-2010 12:19:01 16.9 C 7.34 g/m*3 16.9 C 0 km/h
663 28-05-2010 12:31:02 17.5 C 7.01 g/m*3 17.5 C 0 km/h
664 28-05-2010 12:43:02 19.3 C 7.13 g/m*3 19.3 C 0 km/h
665 28-05-2010 12:55:02 20.5 C 7.3 g/m*3 20.5 C 0 km/h
666 28-05-2010 13:07:02 20.4 C 6.72 g/m*3 20.4 C 0 km/h
667 28-05-2010 13:19:02 21.9 C 6.95 g/m*3 21.9 C 0 km/h
668 28-05-2010 13:31:02 21 C 6.41 g/m*3 21 C 0 km/h
669 28-05-2010 13:43:02 19.3 C 6.63 g/m*3 19.3 C 0 km/h
670 28-05-2010 13:55:02 18.6 C 6.37 g/m*3 18.6 C 0 km/h
671 28-05-2010 14:07:03 20 C 6.39 g/m*3 20 C 0 km/h
672 28-05-2010 14:19:02 21.2 C 6.49 g/m*3 21.2 C 0 km/h
673 28-05-2010 14:31:02 19.1 C 6.07 g/m*3 19.1 C 0 km/h
674 28-05-2010 14:43:02 18.2 C 6.22 g/m*3 18.2 C 0 km/h
675 28-05-2010 14:55:01 18.5 C 5.85 g/m*3 18.5 C 0 km/h
Sensor: Nr:Datum:Temp:Abs-Feuchte:Windchill:Wind:
Aussen-T/F 676 28-05-2010 15:07:02 19.1 C 5.9 g/m*3 19.1 C 0 km/h
677 28-05-2010 15:19:01 21.6 C 5.88 g/m*3 21.6 C 0 km/h
678 28-05-2010 15:31:01 22.6 C 5.42 g/m*3 22.6 C 0 km/h
679 28-05-2010 15:43:01 22.1 C 4.88 g/m*3 22.1 C 0 km/h
680 28-05-2010 15:55:01 23.2 C 4.99 g/m*3 23.2 C 0 km/h
681 28-05-2010 16:07:02 22.6 C 4.62 g/m*3 22.6 C 0 km/h
682 28-05-2010 16:19:02 23.4 C 4.63 g/m*3 23.4 C 0 km/h
683 28-05-2010 16:31:01 23.5 C 4.44 g/m*3 23.5 C 0 km/h
684 28-05-2010 16:43:01 22.6 C 4.02 g/m*3 22.6 C 0 km/h
685 28-05-2010 16:55:01 23.2 C 4.16 g/m*3 23.2 C 0 km/h
686 28-05-2010 17:07:01 22.2 C 3.93 g/m*3 22.2 C 0 km/h
687 28-05-2010 17:19:02 23 C 4.11 g/m*3 23 C 0 km/h
688 28-05-2010 17:31:01 24.2 C 4.4 g/m*3 24.2 C 0 km/h
689 28-05-2010 17:43:01 23.3 C 4.18 g/m*3 23.3 C 0 km/h
690 28-05-2010 17:55:03 23.3 C 4.18 g/m*3 23.3 C 0 km/h
691 28-05-2010 18:07:02 22.7 C 4.04 g/m*3 22.7 C 0 km/h
692 28-05-2010 18:19:02 22.8 C 4.06 g/m*3 22.8 C 0 km/h
693 28-05-2010 18:31:02 23.1 C 4.13 g/m*3 23.1 C 0 km/h
694 28-05-2010 18:43:02 22.5 C 3.99 g/m*3 22.5 C 0 km/h
695 28-05-2010 18:55:02 22 C 4.27 g/m*3 22 C 0 km/h
696 28-05-2010 19:07:01 21.7 C 4.77 g/m*3 21.7 C 0 km/h
697 28-05-2010 19:19:02 22 C 4.27 g/m*3 22 C 0 km/h
698 28-05-2010 19:31:02 22.5 C 4.79 g/m*3 22.5 C 0 km/h
699 28-05-2010 19:43:02 22.1 C 4.88 g/m*3 22.1 C 0 km/h
700 28-05-2010 19:55:01 22.4 C 4.57 g/m*3 22.4 C 0 km/h
Sensor: Nr:Datum:Temp:Abs-Feuchte:Windchill:Wind:
Aussen-T/F 701 28-05-2010 20:07:01 21.2 C 4.63 g/m*3 21.2 C 0 km/h
702 28-05-2010 20:19:01 19.7 C 4.92 g/m*3 19.7 C 0 km/h
703 28-05-2010 20:31:01 19.2 C 5.11 g/m*3 19.2 C 0 km/h
704 28-05-2010 20:43:01 19.3 C 5.14 g/m*3 19.3 C 0 km/h
705 28-05-2010 20:55:02 19 C 5.05 g/m*3 19 C 0 km/h
706 28-05-2010 21:07:02 18.6 C 5.09 g/m*3 18.6 C 0 km/h
707 28-05-2010 21:19:02 18.1 C 5.25 g/m*3 18.1 C 0 km/h
708 28-05-2010 21:31:02 17.4 C 5.34 g/m*3 17.4 C 0 km/h
709 28-05-2010 21:43:02 17 C 5.35 g/m*3 17 C 0 km/h
710 28-05-2010 21:55:02 16.6 C 5.65 g/m*3 16.6 C 0 km/h
711 28-05-2010 22:07:02 16.1 C 5.76 g/m*3 16.1 C 0 km/h
712 28-05-2010 22:19:01 15.7 C 6.02 g/m*3 15.7 C 0 km/h
713 28-05-2010 22:32:03 15.6 C 5.85 g/m*3 15.6 C 0 km/h
714 28-05-2010 22:44:03 15.4 C 6.04 g/m*3 15.4 C 0 km/h
715 28-05-2010 22:56:03 15 C 6.03 g/m*3 15 C 0 km/h
716 28-05-2010 23:08:03 14.7 C 6.04 g/m*3 14.7 C 0 km/h
717 28-05-2010 23:20:03 14.5 C 5.97 g/m*3 14.5 C 0 km/h
718 28-05-2010 23:32:03 14.2 C 6.11 g/m*3 14.2 C 0 km/h
719 28-05-2010 23:44:03 13.6 C 6.47 g/m*3 13.6 C 0 km/h
720 28-05-2010 23:56:03 13.3 C 6.47 g/m*3 13.3 C 0 km/h
721 29-05-2010 00:08:03 13.1 C 6.5 g/m*3 13.1 C 0 km/h
722 29-05-2010 00:20:03 13.1 C 6.62 g/m*3 13.1 C 0 km/h
723 29-05-2010 00:32:03 12.9 C 6.65 g/m*3 12.9 C 0 km/h
724 29-05-2010 00:44:03 12.7 C 6.68 g/m*3 12.7 C 0 km/h
725 29-05-2010 00:56:03 12.5 C 6.71 g/m*3 12.5 C 0 km/h
Sensor: Nr:Datum:Temp:Abs-Feuchte:Windchill:Wind:
Aussen-T/F 726 29-05-2010 01:08:03 12.3 C 6.62 g/m*3 12.3 C 0 km/h
727 29-05-2010 01:20:03 12.1 C 6.65 g/m*3 12.1 C 0 km/h
728 29-05-2010 01:32:04 11.9 C 6.78 g/m*3 11.9 C 0 km/h
729 29-05-2010 01:44:04 11.7 C 6.9 g/m*3 11.7 C 0 km/h
730 29-05-2010 01:56:04 11.6 C 6.86 g/m*3 11.6 C 0 km/h
731 29-05-2010 02:08:04 11.3 C 6.94 g/m*3 11.3 C 0 km/h
732 29-05-2010 02:20:04 11 C 6.91 g/m*3 11 C 0 km/h
733 29-05-2010 02:32:04 10.7 C 6.97 g/m*3 10.7 C 0 km/h
734 29-05-2010 02:44:04 10.6 C 6.93 g/m*3 10.6 C 0 km/h
735 29-05-2010 02:56:04 10.5 C 6.98 g/m*3 10.5 C 0 km/h
736 29-05-2010 03:08:04 10.2 C 6.95 g/m*3 10.2 C 0 km/h
737 29-05-2010 03:20:04 10.1 C 7 g/m*3 10.1 C 0 km/h
738 29-05-2010 03:32:04 9.9 C 7 g/m*3 9.9 C 0 km/h
739 29-05-2010 03:44:04 9.9 C 7.1 g/m*3 9.9 C 0 km/h
740 29-05-2010 03:56:04 9.8 C 7.05 g/m*3 9.8 C 0 km/h
741 29-05-2010 04:08:04 9.8 C 7.05 g/m*3 9.8 C 0 km/h
742 29-05-2010 04:20:04 9.7 C 7.1 g/m*3 9.7 C 0 km/h
743 29-05-2010 04:32:04 9.7 C 7.1 g/m*3 9.7 C 0 km/h
744 29-05-2010 04:44:04 9.6 C 7.05 g/m*3 9.6 C 0 km/h
745 29-05-2010 04:56:04 9.7 C 7.1 g/m*3 9.7 C 0 km/h
746 29-05-2010 05:08:04 9.6 C 6.96 g/m*3 9.6 C 0 km/h
747 29-05-2010 05:20:04 9.5 C 7.01 g/m*3 9.5 C 0 km/h
748 29-05-2010 05:32:05 9.5 C 7.01 g/m*3 9.5 C 0 km/h
749 29-05-2010 05:44:05 9.5 C 7.01 g/m*3 9.5 C 0 km/h
750 29-05-2010 05:56:05 9.3 C 7.01 g/m*3 9.3 C 0 km/h
Sensor: Nr:Datum:Temp:Abs-Feuchte:Windchill:Wind:
Aussen-T/F 751 29-05-2010 06:08:05 9.4 C 7.05 g/m*3 9.4 C 0 km/h
752 29-05-2010 06:20:05 9.6 C 7.15 g/m*3 9.6 C 0 km/h
753 29-05-2010 06:32:05 9.9 C 7.28 g/m*3 9.9 C 0 km/h
754 29-05-2010 06:44:05 10 C 7.14 g/m*3 10 C 0 km/h
755 29-05-2010 06:56:05 10 C 7.05 g/m*3 10 C 0 km/h
756 29-05-2010 07:08:05 9.9 C 7.1 g/m*3 9.9 C 0 km/h
757 29-05-2010 07:20:05 10.1 C 7.09 g/m*3 10.1 C 0 km/h
758 29-05-2010 07:32:05 10.2 C 7.14 g/m*3 10.2 C 0 km/h
759 29-05-2010 07:44:05 10.3 C 7.18 g/m*3 10.3 C 0 km/h
760 29-05-2010 07:56:05 10.4 C 7.23 g/m*3 10.4 C 0 km/h
761 29-05-2010 08:08:05 10.7 C 7.37 g/m*3 10.7 C 0 km/h
762 29-05-2010 08:20:05 11 C 7.31 g/m*3 11 C 0 km/h
763 29-05-2010 08:32:02 11.3 C 7.24 g/m*3 11.3 C 0 km/h
764 29-05-2010 08:44:02 11.7 C 7.11 g/m*3 11.7 C 0 km/h
765 29-05-2010 08:56:02 11.5 C 6.92 g/m*3 11.5 C 0 km/h
766 29-05-2010 09:08:02 11.8 C 7.16 g/m*3 11.8 C 0 km/h
767 29-05-2010 09:20:01 12.2 C 7.01 g/m*3 12.2 C 0 km/h
768 29-05-2010 09:32:02 12.7 C 7.01 g/m*3 12.7 C 0 km/h
769 29-05-2010 09:44:02 13.4 C 7.09 g/m*3 13.4 C 0 km/h
770 29-05-2010 09:56:02 14.2 C 6.96 g/m*3 14.2 C 0 km/h
771 29-05-2010 10:08:02 15 C 6.92 g/m*3 15 C 0 km/h
772 29-05-2010 10:20:02 16.1 C 7.26 g/m*3 16.1 C 0 km/h
773 29-05-2010 10:32:02 17.4 C 7.41 g/m*3 17.4 C 0 km/h
774 29-05-2010 10:44:02 17.9 C 7.02 g/m*3 17.9 C 0 km/h
775 29-05-2010 10:56:02 18.1 C 6.8 g/m*3 18.1 C 0 km/h
Sensor: Nr:Datum:Temp:Abs-Feuchte:Windchill:Wind:
Aussen-T/F 776 29-05-2010 11:08:02 18.4 C 6.92 g/m*3 18.4 C 0 km/h
777 29-05-2010 11:20:02 18.1 C 7.42 g/m*3 18.1 C 0 km/h
778 29-05-2010 11:32:02 18.4 C 7.55 g/m*3 18.4 C 0 km/h
779 29-05-2010 11:44:02 18.8 C 7.41 g/m*3 18.8 C 0 km/h
780 29-05-2010 11:56:01 19.6 C 7.26 g/m*3 19.6 C 0 km/h
781 29-05-2010 12:08:01 20.9 C 6.01 g/m*3 20.9 C 0 km/h
782 29-05-2010 12:20:01 21.8 C 5.76 g/m*3 21.8 C 0 km/h
783 29-05-2010 12:32:01 21.6 C 5.12 g/m*3 21.6 C 0 km/h
784 29-05-2010 12:44:01 21.2 C 5.19 g/m*3 21.2 C 0 km/h
785 29-05-2010 12:56:01 23.1 C 5.17 g/m*3 23.1 C 0 km/h
786 29-05-2010 13:08:01 24 C 4.79 g/m*3 24 C 0 km/h
787 29-05-2010 13:20:02 25.1 C 5.32 g/m*3 25.1 C 0 km/h
788 29-05-2010 13:32:01 25 C 4.6 g/m*3 25 C 0 km/h
789 29-05-2010 13:44:01 25.5 C 4.73 g/m*3 25.5 C 0 km/h
790 29-05-2010 13:56:02 24.6 C 4.73 g/m*3 24.6 C 0 km/h
791 29-05-2010 14:08:01 23.7 C 5.13 g/m*3 23.7 C 0 km/h
792 29-05-2010 14:20:02 23.8 C 5.38 g/m*3 23.8 C 0 km/h
793 29-05-2010 14:32:01 23.7 C 5.13 g/m*3 23.7 C 0 km/h
794 29-05-2010 14:44:01 23.3 C 5.23 g/m*3 23.3 C 0 km/h
795 29-05-2010 14:56:03 22.6 C 5.62 g/m*3 22.6 C 0 km/h
796 29-05-2010 15:08:02 23 C 5.55 g/m*3 23 C 0 km/h
797 29-05-2010 15:20:03 22.5 C 5.19 g/m*3 22.5 C 0 km/h
798 29-05-2010 15:32:02 22.7 C 6.06 g/m*3 22.7 C 0 km/h
799 29-05-2010 15:44:02 23.5 C 5.08 g/m*3 23.5 C 0 km/h
800 29-05-2010 15:56:02 23.4 C 4.84 g/m*3 23.4 C 0 km/h
Sensor: Nr:Datum:Temp:Abs-Feuchte:Windchill:Wind:
Aussen-T/F 801 29-05-2010 16:08:02 23.5 C 4.86 g/m*3 23.5 C 0 km/h
802 29-05-2010 16:20:02 24.5 C 5.15 g/m*3 24.5 C 0 km/h
803 29-05-2010 16:32:02 24.4 C 4.9 g/m*3 24.4 C 0 km/h
804 29-05-2010 16:44:02 24.5 C 5.15 g/m*3 24.5 C 0 km/h
805 29-05-2010 16:56:02 25.2 C 4.89 g/m*3 25.2 C 0 km/h
806 29-05-2010 17:08:02 25.1 C 5.79 g/m*3 25.1 C 0 km/h
807 29-05-2010 17:20:03 24.9 C 5.72 g/m*3 24.9 C 0 km/h
808 29-05-2010 17:32:02 23.5 C 5.92 g/m*3 23.5 C 0 km/h
809 29-05-2010 17:44:02 23.3 C 6.27 g/m*3 23.3 C 0 km/h
810 29-05-2010 17:56:02 23 C 5.96 g/m*3 23 C 0 km/h
811 29-05-2010 18:08:02 22.4 C 6.16 g/m*3 22.4 C 0 km/h
812 29-05-2010 18:20:02 22 C 6.21 g/m*3 22 C 0 km/h
813 29-05-2010 18:32:03 21.6 C 6.45 g/m*3 21.6 C 0 km/h
814 29-05-2010 18:44:03 21.3 C 5.78 g/m*3 21.3 C 0 km/h
815 29-05-2010 18:56:02 21.2 C 5.56 g/m*3 21.2 C 0 km/h
816 29-05-2010 19:08:01 21.2 C 5.56 g/m*3 21.2 C 0 km/h
817 29-05-2010 19:20:02 21 C 5.13 g/m*3 21 C 0 km/h
818 29-05-2010 19:32:02 20.4 C 5.31 g/m*3 20.4 C 0 km/h
819 29-05-2010 19:44:02 20.3 C 5.28 g/m*3 20.3 C 0 km/h
820 29-05-2010 19:56:02 20.4 C 5.48 g/m*3 20.4 C 0 km/h
821 29-05-2010 20:08:02 20 C 5.53 g/m*3 20 C 0 km/h
822 29-05-2010 20:20:02 19.6 C 5.74 g/m*3 19.6 C 0 km/h
823 29-05-2010 20:32:02 19.4 C 5.84 g/m*3 19.4 C 0 km/h
824 29-05-2010 20:44:02 18.9 C 6.32 g/m*3 18.9 C 0 km/h
825 29-05-2010 20:56:02 18.6 C 6.37 g/m*3 18.6 C 0 km/h
Sensor: Nr:Datum:Temp:Abs-Feuchte:Windchill:Wind:
Aussen-T/F 826 29-05-2010 21:08:02 18.4 C 5.98 g/m*3 18.4 C 0 km/h
827 29-05-2010 21:20:02 18.3 C 5.79 g/m*3 18.3 C 0 km/h
828 29-05-2010 21:32:02 17.6 C 6.9 g/m*3 17.6 C 0 km/h
829 29-05-2010 21:44:02 16.4 C 6.84 g/m*3 16.4 C 0 km/h
830 29-05-2010 21:56:02 14.6 C 8.13 g/m*3 14.6 C 0 km/h
831 29-05-2010 22:08:02 13.8 C 8.94 g/m*3 13.8 C 0 km/h
832 29-05-2010 22:20:01 13.3 C 9.01 g/m*3 13.3 C 0 km/h
833 29-05-2010 22:32:01 13.9 C 9.47 g/m*3 13.9 C 0 km/h
834 29-05-2010 22:44:01 14.3 C 8.97 g/m*3 14.3 C 0 km/h
835 29-05-2010 22:57:02 14.5 C 8.95 g/m*3 14.5 C 0 km/h
836 29-05-2010 23:09:02 14.5 C 8.71 g/m*3 14.5 C 0 km/h
837 29-05-2010 23:21:02 14.4 C 8.65 g/m*3 14.4 C 0 km/h
838 29-05-2010 23:33:02 13.7 C 8.76 g/m*3 13.7 C 0 km/h
839 29-05-2010 23:45:02 12.8 C 8.96 g/m*3 12.8 C 0 km/h
840 29-05-2010 23:57:02 13.2 C 9.42 g/m*3 13.2 C 0 km/h

Legende:
   Min
   Max


Maximal/Minimal-Werte vom 23.05.2010 - 29.05.2010

Sensor Min Max Avg
Temp
(Aussen-T/F)
9.3 °C
29-05-2010  05:56:05
30.2 °C
23-05-2010  17:02:01
18.13 °C
Abs-Feuchte
(Aussen-T/F)
3.93 g/m*3
28-05-2010  17:07:01
13.93 g/m*3
26-05-2010  18:41:01
7.67 g/m*3
Windchill
(Aussen-T/F)
9.3 C
29-05-2010  05:56:05
30.2 C
23-05-2010  17:02:01
18.1 C

Die Daten stammen von einer Davis Vantage Pro 2 Wetter-Station und werden unter Linux mit der Software wview2wettercgi und aufbereitet. Alle Angaben erfolgen ohne Gewähr für ihre Vollständigkeit oder Richtigkeit.
Kontakt: Rainer Krienke krienke@uni-koblenz.de . Meine Webseiten an der Uni Koblenz oder privat.
Version: $Revision: 0.78 $